Time;durP1;ratioP1;P1;durP2;ratioP2;P2;SDS_P1;SDS_P2;PMS_P1;PMS_P2;Temp;Humidity;BMP_temperature;BMP_pressure;BME280_temperature;BME280_humidity;BME280_pressure;Samples;Min_cycle;Max_cycle;Signal;HPM_P1;HPM_P2
2023/12/21 00:01:53;;;;;;;10.05;8.63;;;;;;;28.33;59.37;100982.09;4949416;28;69583;-39
2023/12/21 00:04:25;;;;;;;15.95;8.75;;;;;;;28.40;54.08;100982.16;4973677;28;65057;-39
2023/12/21 00:06:55;;;;;;;15.15;8.60;;;;;;;28.48;55.02;100996.31;4976319;28;68715;-38
2023/12/21 00:09:25;;;;;;;9.23;7.35;;;;;;;28.50;54.99;100993.41;4953672;28;66374;-38
2023/12/21 00:11:56;;;;;;;9.10;7.82;;;;;;;28.64;54.96;101010.47;4939300;28;70361;-38
2023/12/21 00:14:30;;;;;;;11.10;7.00;;;;;;;28.66;55.21;101013.81;4945641;28;65237;-38
2023/12/21 00:17:00;;;;;;;8.60;7.72;;;;;;;28.61;55.02;100995.56;4932966;28;70222;-39
2023/12/21 00:19:30;;;;;;;15.48;8.20;;;;;;;28.65;55.17;100990.56;4950538;28;67011;-38
2023/12/21 00:22:00;;;;;;;8.93;7.65;;;;;;;28.78;55.26;101012.22;4971826;28;70074;-38
2023/12/21 00:24:30;;;;;;;11.13;8.98;;;;;;;28.82;55.61;101018.88;4965887;28;65996;-38
2023/12/21 00:27:00;;;;;;;11.85;8.75;;;;;;;28.88;55.52;101028.84;4950831;28;70069;-39
2023/12/21 00:29:30;;;;;;;12.38;9.40;;;;;;;28.89;55.63;101022.44;4945653;28;65752;-39
2023/12/21 00:32:05;;;;;;;13.73;8.73;;;;;;;28.73;55.60;100998.50;4955617;28;70281;-38
2023/12/21 00:34:35;;;;;;;17.00;9.52;;;;;;;28.89;56.13;101035.94;4956634;28;66437;-38
2023/12/21 00:37:05;;;;;;;17.13;10.57;;;;;;;28.98;55.82;101050.06;4968400;28;70426;-39
2023/12/21 00:39:36;;;;;;;16.48;10.43;;;;;;;28.91;56.40;101038.41;4950741;28;66432;-39
2023/12/21 00:42:05;;;;;;;11.27;9.90;;;;;;;29.02;55.91;101050.50;4974177;28;69898;-39
2023/12/21 00:44:35;;;;;;;13.18;10.13;;;;;;;29.04;56.50;101060.09;4970285;28;66394;-40
2023/12/21 00:47:09;;;;;;;15.13;10.45;;;;;;;28.95;56.48;101045.91;4972318;28;70072;-40
2023/12/21 00:49:39;;;;;;;14.20;9.70;;;;;;;29.08;56.57;101066.72;4973386;28;66997;-40
2023/12/21 00:52:10;;;;;;;11.63;9.50;;;;;;;29.07;56.51;101064.25;4938980;28;70025;-40
2023/12/21 00:54:40;;;;;;;13.10;9.52;;;;;;;29.08;56.96;101071.31;4931954;28;66248;-39
2023/12/21 00:57:09;;;;;;;10.35;9.05;;;;;;;29.09;57.09;101075.69;4966147;28;70100;-40
2023/12/21 00:59:40;;;;;;;10.35;8.63;;;;;;;29.14;56.98;101065.09;4952525;28;65405;-40
2023/12/21 01:02:10;;;;;;;10.15;9.00;;;;;;;29.16;56.92;101069.25;4968856;28;69785;-40
2023/12/21 01:04:40;;;;;;;10.18;8.85;;;;;;;29.27;56.40;101080.50;4946367;28;66563;-39
2023/12/21 01:07:10;;;;;;;11.65;8.57;;;;;;;29.34;55.84;101086.78;4970602;28;70733;-40
2023/12/21 01:09:40;;;;;;;13.90;7.85;;;;;;;29.27;55.97;101070.53;4978563;28;66276;-41
2023/12/21 01:12:10;;;;;;;9.48;8.57;;;;;;;28.83;55.98;100990.81;4968825;28;69953;-41
2023/12/21 01:14:41;;;;;;;8.02;7.35;;;;;;;29.47;55.25;101088.66;4960498;28;65057;-40
2023/12/21 01:17:11;;;;;;;9.30;7.65;;;;;;;29.45;55.20;101082.59;4964234;28;70202;-41
2023/12/21 01:19:41;;;;;;;9.15;7.72;;;;;;;29.46;55.56;101074.31;4962037;28;67035;-41
2023/12/21 01:22:11;;;;;;;11.40;8.02;;;;;;;29.52;55.18;101072.66;4933842;28;69478;-41
2023/12/21 01:24:41;;;;;;;8.70;7.82;;;;;;;29.60;55.60;101086.78;4960101;28;66171;-40
2023/12/21 01:27:11;;;;;;;10.95;8.27;;;;;;;29.59;55.34;101078.91;4970962;28;70110;-41
2023/12/21 01:29:58;;;;;;;10.75;7.82;;;;;;;29.62;55.50;101092.84;4972655;28;65780;-41
2023/12/21 01:32:28;;;;;;;9.45;7.75;;;;;;;29.62;54.88;101090.13;4969330;28;70304;-41
2023/12/21 01:34:58;;;;;;;9.32;7.10;;;;;;;29.66;54.92;101077.06;4964442;28;66567;-42
2023/12/21 01:37:29;;;;;;;9.65;7.50;;;;;;;29.70;55.48;101091.84;4953485;28;69854;-40
2023/12/21 01:39:59;;;;;;;8.05;7.18;;;;;;;29.69;54.83;101079.34;4965152;28;66542;-40
2023/12/21 01:42:29;;;;;;;9.65;7.20;;;;;;;29.73;54.81;101090.59;4964234;28;70187;-40
2023/12/21 01:44:59;;;;;;;13.05;7.93;;;;;;;29.74;54.96;101086.84;4967059;28;66057;-40
2023/12/21 01:47:31;;;;;;;11.23;7.65;;;;;;;29.73;55.35;101083.31;4972939;28;69674;-40
2023/12/21 01:50:02;;;;;;;7.55;6.95;;;;;;;29.73;55.15;101080.59;4960572;28;65607;-40
2023/12/21 01:52:32;;;;;;;7.38;6.55;;;;;;;29.81;55.11;101084.94;4959645;28;70348;-40
2023/12/21 01:55:05;;;;;;;10.55;7.40;;;;;;;29.72;55.07;101070.81;4969287;28;65957;-40
2023/12/21 01:57:36;;;;;;;7.90;7.30;;;;;;;29.84;55.08;101085.38;4971858;28;70685;-40
2023/12/21 02:00:07;;;;;;;7.88;6.65;;;;;;;29.86;55.16;101092.44;4973522;28;66340;-40
2023/12/21 02:02:37;;;;;;;6.97;6.38;;;;;;;29.88;55.03;101087.66;4969649;28;71703;-40
2023/12/21 02:05:08;;;;;;;7.78;6.80;;;;;;;29.84;55.25;101084.56;4969968;28;65641;-40
2023/12/21 02:07:40;;;;;;;6.30;5.78;;;;;;;29.40;54.91;100994.06;4974248;28;70207;-40
2023/12/21 02:10:10;;;;;;;;;;;;;;;29.53;55.80;101075.16;4974507;28;65433;-40
2023/12/21 02:12:40;;;;;;;7.03;6.43;;;;;;;29.77;54.89;101065.59;4960062;28;69066;-40
2023/12/21 02:15:12;;;;;;;10.57;6.32;;;;;;;29.76;55.27;101057.72;4981891;28;65453;-39
2023/12/21 02:17:46;;;;;;;5.57;5.25;;;;;;;29.80;54.88;101059.78;4987399;28;69917;-40
2023/12/21 02:20:17;;;;;;;6.63;5.97;;;;;;;29.96;55.10;101084.75;4981971;28;64662;-40
2023/12/21 02:22:49;;;;;;;10.70;6.80;;;;;;;29.97;55.13;101083.69;4985313;28;70890;-40
2023/12/21 02:25:20;;;;;;;6.32;5.82;;;;;;;29.94;55.28;101065.19;4988226;28;66529;-40
2023/12/21 02:27:50;;;;;;;7.05;6.40;;;;;;;29.96;55.31;101068.53;4990421;28;70930;-40
2023/12/21 02:30:21;;;;;;;8.00;6.03;;;;;;;30.03;54.86;101078.31;4977027;28;64639;-40
2023/12/21 02:32:51;;;;;;;6.78;5.70;;;;;;;30.05;55.39;101083.50;4990954;28;70393;-40
2023/12/21 02:35:21;;;;;;;6.47;5.63;;;;;;;30.06;55.15;101090.53;4992059;28;65943;-39
2023/12/21 02:37:51;;;;;;;6.03;5.60;;;;;;;30.07;55.21;101097.63;4978476;28;70523;-40
2023/12/21 02:40:21;;;;;;;5.90;5.50;;;;;;;30.09;55.27;101092.84;4989474;28;65599;-41
2023/12/21 02:42:51;;;;;;;6.40;6.00;;;;;;;30.12;55.35;101084.31;4967874;28;70035;-39
2023/12/21 02:45:21;;;;;;;5.65;5.20;;;;;;;30.14;55.44;101093.03;4967982;28;66850;-40
2023/12/21 02:47:51;;;;;;;6.40;5.90;;;;;;;30.08;55.00;101085.78;4959286;28;70021;-40
2023/12/21 02:50:21;;;;;;;5.47;5.18;;;;;;;30.11;54.99;101079.09;4989016;28;65364;-40
2023/12/21 02:52:51;;;;;;;9.65;5.10;;;;;;;30.02;55.14;101062.28;5001239;28;70847;-40
2023/12/21 02:55:21;;;;;;;6.60;4.95;;;;;;;30.23;55.21;101093.72;4983495;28;65863;-41
2023/12/21 02:57:51;;;;;;;5.28;4.82;;;;;;;30.22;55.40;101079.31;5003898;28;70540;-39
2023/12/21 03:00:21;;;;;;;6.25;5.65;;;;;;;30.25;55.47;101072.66;4982291;28;66675;-40
2023/12/21 03:02:52;;;;;;;6.10;5.60;;;;;;;30.17;55.33;101060.19;4986967;28;69588;-41
2023/12/21 03:05:22;;;;;;;5.57;5.22;;;;;;;30.26;55.47;101061.63;4950409;28;65794;-41
2023/12/21 03:07:54;;;;;;;5.53;5.13;;;;;;;30.17;54.96;101033.13;4965688;28;69285;-40
2023/12/21 03:10:24;;;;;;;5.87;5.43;;;;;;;30.23;55.15;101032.28;4978159;28;64955;-41
2023/12/21 03:12:55;;;;;;;5.97;5.43;;;;;;;30.35;55.02;101048.69;4957893;28;70276;-40
2023/12/21 03:15:27;;;;;;;5.75;5.25;;;;;;;30.35;54.89;101045.16;4974075;28;43239;-40
2023/12/21 03:17:57;;;;;;;6.13;5.63;;;;;;;30.39;55.32;101039.09;4964075;28;70608;-41
2023/12/21 03:20:27;;;;;;;5.68;5.28;;;;;;;30.38;55.39;101033.91;4943957;28;65540;-41
2023/12/21 03:22:57;;;;;;;6.10;5.55;;;;;;;30.41;55.50;101033.47;4961725;28;69669;-40
2023/12/21 03:25:27;;;;;;;5.45;5.05;;;;;;;30.39;54.96;101036.38;4964258;28;66228;-41
2023/12/21 03:27:59;;;;;;;5.53;5.07;;;;;;;30.42;55.12;101021.59;4976540;28;70521;-39
2023/12/21 03:30:29;;;;;;;5.38;4.88;;;;;;;30.46;55.20;101025.56;4981097;28;65479;-41
2023/12/21 03:33:00;;;;;;;6.03;5.05;;;;;;;30.48;55.00;101032.41;4954661;28;70159;-41
2023/12/21 03:35:31;;;;;;;5.65;5.15;;;;;;;30.49;54.86;101019.72;4962824;28;66199;-41
2023/12/21 03:38:02;;;;;;;5.90;5.40;;;;;;;30.55;55.17;101021.56;4931598;28;69097;-41
2023/12/21 03:40:33;;;;;;;6.40;5.70;;;;;;;30.56;55.13;101027.78;4971421;28;66675;-42
2023/12/21 03:43:03;;;;;;;5.60;5.20;;;;;;;30.60;55.28;101019.03;4938428;28;69096;-40
2023/12/21 03:45:39;;;;;;;5.68;5.30;;;;;;;30.60;55.14;101010.09;4945272;28;65521;-40
2023/12/21 03:48:10;;;;;;;6.20;5.53;;;;;;;30.64;55.15;101001.31;4948067;28;70606;-40
2023/12/21 03:50:42;;;;;;;5.95;5.43;;;;;;;30.65;55.10;100991.34;4979109;28;65937;-41
2023/12/21 03:53:16;;;;;;;;;;;;;;;30.32;56.34;101005.00;4967882;28;70648;-40
2023/12/21 03:55:47;;;;;;;5.00;4.60;;;;;;;30.63;55.57;101005.06;4950072;28;66389;-40
2023/12/21 03:58:17;;;;;;;5.15;4.65;;;;;;;30.69;55.11;101004.19;4963861;28;71028;-40
2023/12/21 04:00:48;;;;;;;6.38;4.85;;;;;;;30.72;54.87;101003.75;4973859;28;66916;-41
2023/12/21 04:03:18;;;;;;;6.18;5.18;;;;;;;30.37;55.12;100942.91;4947182;28;69079;-41
2023/12/21 04:05:48;;;;;;;6.28;4.80;;;;;;;30.78;55.27;101003.94;4947655;28;66436;-40
2023/12/21 04:08:21;;;;;;;7.85;5.50;;;;;;;30.79;55.17;100992.09;4966490;28;69945;-40
2023/12/21 04:10:51;;;;;;;5.80;5.30;;;;;;;30.81;54.89;100990.00;4963351;28;66793;-40
2023/12/21 04:13:21;;;;;;;5.13;4.72;;;;;;;30.53;55.34;100939.72;4967531;28;70504;-41
2023/12/21 04:15:51;;;;;;;5.28;4.78;;;;;;;30.87;55.14;100983.72;4965368;28;66491;-40
2023/12/21 04:18:21;;;;;;;6.93;4.75;;;;;;;30.87;55.26;100972.88;4965177;28;70466;-40
2023/12/21 04:20:51;;;;;;;5.65;5.15;;;;;;;30.90;55.28;100972.47;4962541;28;66429;-41
2023/12/21 04:23:21;;;;;;;4.95;4.47;;;;;;;30.93;54.93;100972.03;4926761;28;68626;-40
2023/12/21 04:25:51;;;;;;;5.80;4.85;;;;;;;30.95;55.12;100969.91;4961810;28;65698;-40
2023/12/21 04:28:21;;;;;;;7.20;5.28;;;;;;;30.96;55.22;100959.94;4960224;28;70424;-41
2023/12/21 04:30:51;;;;;;;5.43;4.93;;;;;;;31.00;55.44;100966.56;4968690;28;65387;-41
2023/12/21 04:33:21;;;;;;;4.88;4.47;;;;;;;31.00;54.77;100951.13;4961471;28;70173;-41
2023/12/21 04:35:52;;;;;;;5.03;4.65;;;;;;;30.98;55.12;100945.13;4969638;28;66155;-41
2023/12/21 04:38:23;;;;;;;5.43;5.03;;;;;;;30.97;54.97;100935.31;4924753;28;68660;-40
2023/12/21 04:40:52;;;;;;;5.10;4.70;;;;;;;31.08;55.11;100950.84;4939670;28;65373;-40
2023/12/21 04:43:24;;;;;;;6.10;4.90;;;;;;;31.09;55.24;100939.00;4960193;28;69900;-41
2023/12/21 04:45:54;;;;;;;5.18;4.78;;;;;;;31.08;54.79;100931.88;4959484;28;66612;-41
2023/12/21 04:48:25;;;;;;;5.25;4.63;;;;;;;31.03;54.87;100920.88;4952412;28;70458;-42
2023/12/21 04:50:56;;;;;;;4.88;4.47;;;;;;;31.12;54.85;100926.84;4950637;28;65771;-40
2023/12/21 04:53:26;;;;;;;4.97;4.57;;;;;;;31.19;54.72;100922.22;4969701;28;70064;-40
2023/12/21 04:55:56;;;;;;;5.70;5.22;;;;;;;31.20;54.93;100915.75;4963489;28;66748;-41
2023/12/21 04:58:26;;;;;;;5.05;4.63;;;;;;;31.23;55.03;100919.88;4974273;28;69865;-41
2023/12/21 05:00:56;;;;;;;5.32;4.85;;;;;;;31.24;55.23;100908.00;4964603;28;65929;-40
2023/12/21 05:03:26;;;;;;;5.00;4.60;;;;;;;31.23;55.22;100900.91;4944710;28;70240;-40
2023/12/21 05:05:56;;;;;;;4.82;4.43;;;;;;;31.19;54.94;100891.59;4943035;28;66904;-41
2023/12/21 05:08:26;;;;;;;5.82;4.55;;;;;;;31.23;54.99;100884.66;4963216;28;70313;-40
2023/12/21 05:10:56;;;;;;;4.75;4.35;;;;;;;31.30;55.23;100891.69;4961030;28;66332;-40
2023/12/21 05:13:27;;;;;;;5.03;4.60;;;;;;;31.33;54.66;100885.00;4972421;28;70516;-41
2023/12/21 05:15:57;;;;;;;5.10;4.70;;;;;;;31.34;55.11;100879.34;4975164;28;65568;-41
2023/12/21 05:18:27;;;;;;;4.78;4.47;;;;;;;31.31;55.19;100859.97;4955845;28;68956;-41
2023/12/21 05:20:57;;;;;;;9.02;4.70;;;;;;;31.38;55.03;100866.22;4934909;28;64562;-40
2023/12/21 05:23:27;;;;;;;5.05;4.60;;;;;;;31.35;54.78;100866.63;4959428;28;69706;-41
2023/12/21 05:25:57;;;;;;;11.18;4.35;;;;;;;31.42;54.71;100866.59;4959980;28;66929;-41
2023/12/21 05:28:27;;;;;;;5.50;4.53;;;;;;;31.39;55.17;100851.59;4955266;28;70785;-41
2023/12/21 05:30:57;;;;;;;4.32;4.03;;;;;;;31.42;54.76;100859.28;4970457;28;65821;-40
2023/12/21 05:33:28;;;;;;;7.55;4.20;;;;;;;31.44;54.60;100849.03;4974641;28;71301;-40
2023/12/21 05:35:58;;;;;;;4.85;4.43;;;;;;;31.48;54.65;100842.13;4956566;28;66146;-42
2023/12/21 05:38:29;;;;;;;5.10;4.65;;;;;;;31.42;54.94;100826.75;4951712;28;70515;-41
2023/12/21 05:40:59;;;;;;;4.53;3.92;;;;;;;31.47;54.94;100831.50;4970783;28;66884;-41
2023/12/21 05:43:29;;;;;;;5.05;4.65;;;;;;;31.52;54.94;100827.06;4941543;28;69285;-40
2023/12/21 05:46:00;;;;;;;5.07;4.70;;;;;;;31.55;54.52;100823.88;4960384;28;66007;-40
2023/12/21 05:48:31;;;;;;;4.88;3.83;;;;;;;31.54;54.72;100818.72;4971851;28;70472;-41
2023/12/21 05:51:01;;;;;;;3.85;3.58;;;;;;;31.55;54.91;100818.47;4958414;28;66054;-41
2023/12/21 05:53:32;;;;;;;7.15;4.32;;;;;;;31.57;54.90;100816.38;4947543;28;70105;-41
2023/12/21 05:56:03;;;;;;;4.60;4.20;;;;;;;31.57;54.90;100805.53;4946951;28;66648;-42
2023/12/21 05:58:34;;;;;;;4.28;3.95;;;;;;;31.58;55.11;100807.16;4942423;28;70045;-42
2023/12/21 06:01:04;;;;;;;4.32;4.03;;;;;;;31.62;54.97;100812.97;4967476;28;66357;-40
2023/12/21 06:03:35;;;;;;;;;;;;;;;31.35;55.94;100794.28;4947969;28;70434;-40
2023/12/21 06:06:05;;;;;;;4.47;4.18;;;;;;;31.64;54.83;100788.34;4963351;28;66649;-41
2023/12/21 06:08:35;;;;;;;4.63;4.32;;;;;;;31.58;54.83;100769.22;4939506;28;70631;-41
2023/12/21 06:11:06;;;;;;;4.20;3.90;;;;;;;31.72;54.74;100785.31;4970819;28;66261;-41
2023/12/21 06:13:36;;;;;;;4.10;3.80;;;;;;;31.68;54.76;100763.25;4959728;28;70672;-41
2023/12/21 06:16:11;;;;;;;4.03;3.72;;;;;;;31.73;54.56;100770.69;4961754;28;66405;-41
2023/12/21 06:18:41;;;;;;;4.30;4.00;;;;;;;31.78;54.45;100766.22;4969429;28;69962;-40
2023/12/21 06:21:11;;;;;;;4.97;3.75;;;;;;;31.79;54.52;100764.38;4974471;28;66089;-41
2023/12/21 06:23:42;;;;;;;4.78;4.30;;;;;;;31.82;54.64;100767.44;4963585;28;69939;-41
2023/12/21 06:26:12;;;;;;;4.15;3.67;;;;;;;31.85;54.57;100752.59;4964043;28;66596;-41
2023/12/21 06:28:42;;;;;;;4.18;3.88;;;;;;;31.88;54.19;100759.44;4951315;28;69973;-41
2023/12/21 06:31:16;;;;;;;4.53;4.22;;;;;;;31.89;54.30;100758.38;4969989;28;67159;-41
2023/12/21 06:33:48;;;;;;;4.22;3.85;;;;;;;31.91;54.34;100745.41;4970335;28;70010;-41
2023/12/21 06:36:18;;;;;;;3.70;3.40;;;;;;;31.58;54.21;100687.88;4977743;28;66773;-40
2023/12/21 06:38:48;;;;;;;4.32;3.92;;;;;;;31.95;54.33;100741.22;4959475;28;69924;-41
2023/12/21 06:41:18;;;;;;;5.40;3.78;;;;;;;31.98;54.23;100730.75;4952805;28;65396;-43
2023/12/21 06:43:49;;;;;;;4.35;3.70;;;;;;;31.88;54.17;100699.78;4976615;28;70231;-42
2023/12/21 06:46:20;;;;;;;4.10;3.53;;;;;;;32.02;54.09;100718.34;4929882;28;66353;-40
2023/12/21 06:48:51;;;;;;;5.88;4.00;;;;;;;32.02;54.17;100717.53;4970953;28;69387;-41
2023/12/21 06:51:21;;;;;;;4.47;4.10;;;;;;;31.92;54.31;100688.25;4947108;28;65405;-41
2023/12/21 06:53:51;;;;;;;5.43;3.83;;;;;;;31.94;54.23;100688.84;4970012;28;69665;-40
2023/12/21 06:56:21;;;;;;;4.30;3.63;;;;;;;32.09;53.95;100706.56;4969870;28;66107;-41
2023/12/21 06:59:03;;;;;;;4.40;3.70;;;;;;;32.10;54.27;100694.66;4948241;28;70425;-45
2023/12/21 07:01:34;;;;;;;3.72;3.53;;;;;;;32.13;53.97;100697.72;4949822;28;66830;-40
2023/12/21 07:04:04;;;;;;;3.33;3.03;;;;;;;32.18;54.07;100697.88;4967489;28;70557;-41
2023/12/21 07:06:35;;;;;;;3.65;3.35;;;;;;;32.18;54.01;100687.00;4963239;28;67043;-41
2023/12/21 07:09:06;;;;;;;3.53;3.22;;;;;;;32.22;53.77;100682.75;4967618;28;69819;-41
2023/12/21 07:11:36;;;;;;;3.53;3.33;;;;;;;32.15;53.99;100684.78;4952341;28;67373;-40
2023/12/21 07:14:06;;;;;;;2.95;2.75;;;;;;;32.27;53.87;100684.78;4965208;28;70598;-41
2023/12/21 07:16:36;;;;;;;4.85;3.65;;;;;;;32.29;53.89;100693.53;4943829;28;66041;-41
2023/12/21 07:19:06;;;;;;;3.30;3.08;;;;;;;32.24;54.00;100680.63;4966571;28;70220;-41
2023/12/21 07:21:36;;;;;;;3.92;3.63;;;;;;;32.35;53.91;100698.00;4966737;28;66572;-42
2023/12/21 07:24:06;;;;;;;3.58;3.33;;;;;;;32.38;53.84;100699.41;4953030;28;69925;-40
2023/12/21 07:26:36;;;;;;;3.72;3.35;;;;;;;32.41;54.17;100690.81;4964791;28;66040;-41
2023/12/21 07:29:06;;;;;;;3.80;3.28;;;;;;;32.43;53.83;100694.09;4964114;28;70722;-41
2023/12/21 07:31:36;;;;;;;4.05;3.38;;;;;;;32.46;53.67;100696.41;4965930;28;65397;-40
2023/12/21 07:34:07;;;;;;;3.30;3.00;;;;;;;32.49;53.77;100688.59;4940940;28;69471;-41
2023/12/21 07:36:37;;;;;;;3.90;3.10;;;;;;;32.16;53.70;100629.44;4970613;28;66549;-40
2023/12/21 07:39:08;;;;;;;3.30;3.00;;;;;;;32.56;53.63;100693.06;4963890;28;70119;-41
2023/12/21 07:41:38;;;;;;;3.05;2.85;;;;;;;32.58;53.60;100690.97;4928671;28;66177;-43
2023/12/21 07:44:11;;;;;;;3.03;2.83;;;;;;;32.64;53.41;100690.00;4948103;28;70425;-41
2023/12/21 07:46:41;;;;;;;2.87;2.67;;;;;;;32.65;53.68;100680.78;4973515;28;67198;-40
2023/12/21 07:49:11;;;;;;;3.22;2.92;;;;;;;32.62;53.43;100686.69;4966695;28;70407;-43
2023/12/21 07:51:42;;;;;;;2.70;2.50;;;;;;;32.67;53.25;100684.91;4955063;28;66161;-41
2023/12/21 07:54:14;;;;;;;3.28;2.60;;;;;;;32.79;53.21;100690.34;4969030;28;70086;-41
2023/12/21 07:56:44;;;;;;;3.05;2.75;;;;;;;32.79;53.18;100692.22;4954264;28;65293;-41
2023/12/21 07:59:14;;;;;;;3.92;3.30;;;;;;;32.87;53.30;100695.41;4971916;28;70469;-41
2023/12/21 08:01:44;;;;;;;2.72;2.53;;;;;;;32.84;53.32;100679.59;4968143;28;64712;-43
2023/12/21 08:04:16;;;;;;;2.92;2.72;;;;;;;32.96;53.13;100686.88;4963490;28;70415;-40
2023/12/21 08:06:47;;;;;;;2.72;2.53;;;;;;;32.96;53.13;100676.88;4954736;28;65365;-40
2023/12/21 08:09:17;;;;;;;3.10;2.80;;;;;;;33.00;53.10;100677.25;4961997;28;70482;-41
2023/12/21 08:11:47;;;;;;;2.55;2.35;;;;;;;33.02;52.75;100680.53;4973647;28;65458;-40
2023/12/21 08:14:17;;;;;;;2.65;2.45;;;;;;;33.07;53.02;100672.47;4966398;28;69340;-40
2023/12/21 08:16:48;;;;;;;2.60;2.40;;;;;;;33.07;53.03;100667.91;4967447;28;65650;-41
2023/12/21 08:19:18;;;;;;;3.03;2.83;;;;;;;33.15;52.95;100680.25;4966030;28;70273;-41
2023/12/21 08:21:48;;;;;;;2.53;2.33;;;;;;;33.19;52.89;100667.84;4971939;28;66345;-41
2023/12/21 08:24:19;;;;;;;3.83;2.50;;;;;;;33.23;52.59;100669.00;4970227;28;69244;-41
2023/12/21 08:26:49;;;;;;;2.33;2.15;;;;;;;33.27;52.62;100672.09;4963713;28;65246;-41
2023/12/21 08:29:20;;;;;;;2.30;2.03;;;;;;;33.32;52.59;100681.16;4949854;28;69314;-41
2023/12/21 08:31:51;;;;;;;2.38;2.17;;;;;;;33.34;52.64;100679.00;4967991;28;66577;-41
2023/12/21 08:34:22;;;;;;;2.13;2.00;;;;;;;33.37;52.38;100689.41;4933682;28;69921;-41
2023/12/21 08:36:52;;;;;;;2.75;2.25;;;;;;;33.43;52.47;100692.22;4954606;28;65276;-41
2023/12/21 08:39:24;;;;;;;2.63;2.10;;;;;;;33.44;52.59;100691.19;4967903;28;70669;-41
2023/12/21 08:41:54;;;;;;;;;;;;;;;33.31;52.60;100690.38;4943744;28;66349;-41
2023/12/21 08:44:23;;;;;;;2.30;2.10;;;;;;;33.52;52.42;100696.22;4954505;28;70161;-41
2023/12/21 08:46:56;;;;;;;2.58;2.38;;;;;;;33.56;52.43;100698.22;4965654;28;66065;-41
2023/12/21 08:49:27;;;;;;;2.30;2.10;;;;;;;33.61;52.14;100704.84;4946572;28;70408;-41
2023/12/21 08:51:57;;;;;;;2.60;2.38;;;;;;;33.63;52.22;100708.97;4948118;28;64454;-41
2023/12/21 08:54:29;;;;;;;2.22;2.10;;;;;;;33.65;52.41;100703.28;4953750;28;70048;-46
2023/12/21 08:56:59;;;;;;;3.03;2.53;;;;;;;33.67;52.14;100703.88;4966425;28;65861;-41
2023/12/21 08:59:29;;;;;;;5.13;1.90;;;;;;;33.71;52.02;100705.88;4957314;28;69628;-41
2023/12/21 09:02:01;;;;;;;3.72;2.53;;;;;;;33.72;51.75;100712.94;4956020;28;66187;-41
2023/12/21 09:04:33;;;;;;;2.50;2.30;;;;;;;33.76;51.74;100724.97;4936142;28;69641;-42
2023/12/21 09:07:04;;;;;;;2.45;2.25;;;;;;;33.78;51.64;100727.47;4967783;28;67073;-40
2023/12/21 09:09:34;;;;;;;2.92;2.22;;;;;;;33.80;51.95;100720.72;4948717;28;70798;-40
2023/12/21 09:12:04;;;;;;;3.15;2.47;;;;;;;33.74;51.51;100710.81;4966312;28;66354;-40
2023/12/21 09:14:35;;;;;;;2.85;2.35;;;;;;;33.85;51.55;100721.88;4944567;28;70241;-41
2023/12/21 09:17:05;;;;;;;3.05;2.38;;;;;;;33.81;52.01;100716.91;4962230;28;66211;-41
2023/12/21 09:19:35;;;;;;;2.88;2.67;;;;;;;33.89;51.63;100723.03;4949138;28;70409;-41
2023/12/21 09:22:05;;;;;;;3.15;2.53;;;;;;;33.40;52.53;100725.34;4945087;28;66527;-39
2023/12/21 09:24:38;;;;;;;3.25;2.40;;;;;;;33.18;53.75;100720.53;4948338;28;69569;-39
2023/12/21 09:27:08;;;;;;;4.20;2.92;;;;;;;33.16;54.57;100741.72;4963459;28;65624;-40
2023/12/21 09:29:38;;;;;;;3.15;2.92;;;;;;;33.14;54.44;100732.97;4967273;28;69615;-39
2023/12/21 09:32:08;;;;;;;4.40;3.10;;;;;;;33.02;55.06;100740.34;4948536;28;65469;-40
2023/12/21 09:34:39;;;;;;;4.15;3.13;;;;;;;32.88;55.34;100724.25;4968630;28;69963;-39
2023/12/21 09:37:09;;;;;;;4.50;2.58;;;;;;;32.93;55.04;100737.94;4969186;28;66401;-39
2023/12/21 09:39:39;;;;;;;3.55;2.95;;;;;;;32.90;55.18;100743.84;4966148;28;70640;-39
2023/12/21 09:42:14;;;;;;;6.18;2.83;;;;;;;32.45;55.48;100681.94;4953333;28;65688;-39
2023/12/21 09:44:47;;;;;;;5.22;3.28;;;;;;;32.89;55.40;100763.91;4964788;28;69577;-40
2023/12/21 09:47:19;;;;;;;3.53;3.05;;;;;;;32.86;55.79;100769.00;4965523;28;66817;-39
2023/12/21 09:49:54;;;;;;;6.90;3.08;;;;;;;32.87;55.66;100766.03;4969571;28;70036;-39
2023/12/21 09:52:26;;;;;;;8.23;2.92;;;;;;;32.84;55.96;100761.09;4972992;28;65394;-39
2023/12/21 09:54:57;;;;;;;5.47;3.53;;;;;;;32.82;55.70;100776.81;4948812;28;70012;-39
2023/12/21 09:57:27;;;;;;;11.10;3.22;;;;;;;32.87;55.12;100776.09;4970874;28;66469;-40
2023/12/21 09:59:58;;;;;;;9.32;4.03;;;;;;;32.77;55.24;100782.13;4945180;28;69643;-40
2023/12/21 10:02:31;;;;;;;6.00;3.00;;;;;;;32.76;55.50;100775.00;4949449;28;66345;-39
2023/12/21 10:05:03;;;;;;;5.25;3.42;;;;;;;32.82;54.97;100790.41;4964988;28;70391;-39
2023/12/21 10:07:33;;;;;;;4.13;3.78;;;;;;;32.83;55.04;100797.47;4930362;28;66506;-40
2023/12/21 10:10:04;;;;;;;4.72;3.42;;;;;;;32.77;54.94;100795.69;4951797;28;70442;-38
2023/12/21 10:12:34;;;;;;;3.77;3.47;;;;;;;32.75;54.85;100800.53;4962672;28;65446;-39
2023/12/21 10:15:06;;;;;;;7.15;3.75;;;;;;;32.76;55.15;100802.19;4973097;28;70557;-39
2023/12/21 10:17:37;;;;;;;3.80;3.50;;;;;;;32.82;54.62;100801.25;4950455;28;65951;-40
2023/12/21 10:20:11;;;;;;;3.88;3.50;;;;;;;32.70;55.06;100792.25;4969326;28;69095;-39
2023/12/21 10:22:43;;;;;;;6.88;3.83;;;;;;;32.71;55.01;100810.22;4972375;28;66172;-39
2023/12/21 10:25:14;;;;;;;4.28;3.88;;;;;;;32.77;55.10;100813.91;4948553;28;70198;-40
2023/12/21 10:27:55;;;;;;;6.32;3.80;;;;;;;32.66;55.54;100818.25;4950944;28;66606;-39
2023/12/21 10:30:26;;;;;;;3.57;3.13;;;;;;;32.72;55.23;100828.16;4969171;28;69885;-39
2023/12/21 10:32:57;;;;;;;6.57;3.33;;;;;;;32.70;55.59;100830.28;4966567;28;65923;-39
2023/12/21 10:35:28;;;;;;;5.03;3.65;;;;;;;32.74;55.63;100841.53;4935069;28;69739;-39
2023/12/21 10:37:59;;;;;;;9.27;3.70;;;;;;;32.69;55.89;100848.47;4973126;28;66986;-39
2023/12/21 10:40:30;;;;;;;5.80;3.10;;;;;;;32.67;56.10;100841.63;4951718;28;69951;-38
2023/12/21 10:43:01;;;;;;;6.65;3.35;;;;;;;32.71;55.52;100848.25;4966945;28;66391;-38
2023/12/21 10:45:32;;;;;;;3.85;3.47;;;;;;;32.70;55.95;100852.84;4968801;28;69932;-39
2023/12/21 10:48:11;;;;;;;5.70;3.50;;;;;;;32.72;56.23;100855.34;4965731;28;65401;-40
2023/12/21 10:50:46;;;;;;;3.38;3.08;;;;;;;32.68;56.43;100875.84;4967008;28;70139;-38
2023/12/21 10:53:23;;;;;;;3.60;3.30;;;;;;;32.54;56.71;100847.25;4975116;28;65649;-39
2023/12/21 10:55:54;;;;;;;5.43;3.42;;;;;;;32.69;56.96;100885.69;4973888;28;70417;-39
2023/12/21 10:58:26;;;;;;;9.50;4.05;;;;;;;32.70;57.02;100884.59;4972781;28;66404;-38
2023/12/21 11:00:57;;;;;;;3.92;3.22;;;;;;;32.67;56.93;100895.94;4974339;28;69829;-39
2023/12/21 11:03:28;;;;;;;4.35;3.95;;;;;;;32.55;56.59;100885.06;4966373;28;65499;-38
2023/12/21 11:06:02;;;;;;;4.20;3.80;;;;;;;32.65;57.74;100914.34;4949497;28;70673;-40
2023/12/21 11:08:34;;;;;;;4.15;3.80;;;;;;;32.65;58.04;100908.91;4962857;28;66686;-38
2023/12/21 11:11:05;;;;;;;6.32;4.72;;;;;;;32.66;57.83;100916.03;4955781;28;69910;-38
2023/12/21 11:13:44;;;;;;;5.70;4.60;;;;;;;32.61;58.32;100907.75;4945003;28;65222;-39
2023/12/21 11:16:18;;;;;;;6.38;4.07;;;;;;;32.71;57.77;100924.31;4945961;28;69433;-39
2023/12/21 11:18:54;;;;;;;6.95;4.10;;;;;;;32.86;56.81;100932.84;4958184;28;66527;-39
2023/12/21 11:21:28;;;;;;;5.13;4.35;;;;;;;33.03;56.26;100927.59;4954015;28;70669;-38
2023/12/21 11:23:59;;;;;;;;;;;;;;;32.91;57.54;100946.56;4969544;28;66327;-39
2023/12/21 11:26:30;;;;;;;4.65;3.65;;;;;;;33.18;56.01;100946.16;4954755;28;69007;-38
2023/12/21 11:29:05;;;;;;;3.60;3.40;;;;;;;33.17;55.67;100940.97;4945906;28;66519;-39
2023/12/21 11:31:40;;;;;;;3.78;3.20;;;;;;;33.29;55.63;100950.78;4970710;28;70380;-39
2023/12/21 11:34:16;;;;;;;4.13;3.72;;;;;;;33.33;55.45;100960.13;4963910;28;66246;-38
2023/12/21 11:36:49;;;;;;;7.80;4.57;;;;;;;33.31;55.45;100945.94;4950462;28;70581;-38
2023/12/21 11:39:21;;;;;;;5.32;4.38;;;;;;;33.39;55.76;100958.34;4963690;28;66613;-39
2023/12/21 11:42:00;;;;;;;4.57;4.22;;;;;;;33.31;56.11;100948.66;4951310;28;70326;-39